createdAt,value
2019-04-11T00:01:44.737Z,4.50
2019-04-11T00:04:08.280Z,4.50
2019-04-11T00:06:36.990Z,4.50
2019-04-11T00:09:10.266Z,4.50
2019-04-11T00:11:39.328Z,4.40
2019-04-11T00:14:08.529Z,4.40
2019-04-11T00:16:37.951Z,4.40
2019-04-11T00:19:07.303Z,4.30
2019-04-11T00:21:37.845Z,4.30
2019-04-11T00:24:07.148Z,4.30
2019-04-11T00:26:36.279Z,4.30
2019-04-11T00:29:05.943Z,4.30
2019-04-11T00:31:35.157Z,4.30
2019-04-11T00:34:04.707Z,4.20
2019-04-11T00:36:34.597Z,4.20
2019-04-11T00:39:05.729Z,4.20
2019-04-11T00:41:35.430Z,4.20
2019-04-11T00:44:04.405Z,4.10
2019-04-11T00:46:34.130Z,4.10
2019-04-11T00:49:03.082Z,4.10
2019-04-11T00:51:32.061Z,4.10
2019-04-11T00:54:02.501Z,4.00
2019-04-11T00:56:32.475Z,4.00
2019-04-11T00:59:02.491Z,4.00
2019-04-11T01:01:31.636Z,3.90
2019-04-11T01:04:01.337Z,3.90
2019-04-11T01:06:30.269Z,3.90
2019-04-11T01:09:00.000Z,3.90
2019-04-11T01:11:30.058Z,3.90
2019-04-11T01:13:59.502Z,3.80
2019-04-11T01:16:48.562Z,3.80
2019-04-11T01:19:19.938Z,3.80
2019-04-11T01:21:49.074Z,3.80
2019-04-11T01:24:18.434Z,3.70
2019-04-11T01:26:49.617Z,3.70
2019-04-11T01:29:19.654Z,3.70
2019-04-11T01:31:53.906Z,3.70
2019-04-11T01:34:22.753Z,3.60
2019-04-11T01:36:51.488Z,3.60
2019-04-11T01:39:27.948Z,3.60
2019-04-11T01:41:57.125Z,3.60
2019-04-11T01:44:25.894Z,3.50
2019-04-11T01:46:54.905Z,3.50
2019-04-11T01:49:24.051Z,3.50
2019-04-11T01:51:53.953Z,3.50
2019-04-11T01:54:23.846Z,3.40
2019-04-11T01:56:53.693Z,3.40
2019-04-11T01:59:23.631Z,3.40
2019-04-11T02:02:05.722Z,3.40
2019-04-11T02:04:42.524Z,3.40
2019-04-11T02:07:12.221Z,3.30
2019-04-11T02:09:41.508Z,3.30
2019-04-11T02:12:10.608Z,3.20
2019-04-11T02:14:39.645Z,3.20
2019-04-11T02:17:08.951Z,3.20
2019-04-11T02:19:38.467Z,3.20
2019-04-11T02:22:24.329Z,3.20
2019-04-11T02:25:09.597Z,3.20
2019-04-11T02:27:40.076Z,3.10
2019-04-11T02:30:11.312Z,3.10
2019-04-11T02:32:42.692Z,3.10
2019-04-11T02:35:13.297Z,3.10
2019-04-11T02:37:44.231Z,3.10
2019-04-11T02:40:13.549Z,3.00
2019-04-11T02:42:43.319Z,3.00
2019-04-11T02:45:24.729Z,3.00
2019-04-11T02:47:47.875Z,3.00
2019-04-11T02:50:18.584Z,2.90
2019-04-11T02:52:47.281Z,2.90
2019-04-11T02:55:17.270Z,2.90
2019-04-11T02:57:48.111Z,2.90
2019-04-11T03:00:18.102Z,2.90
2019-04-11T03:02:50.305Z,2.80
2019-04-11T03:05:20.848Z,2.80
2019-04-11T03:07:49.950Z,2.80
2019-04-11T03:10:20.890Z,2.70
2019-04-11T03:12:49.967Z,2.70
2019-04-11T03:15:32.061Z,2.70
2019-04-11T03:17:54.936Z,2.70
2019-04-11T03:20:30.456Z,2.70
2019-04-11T03:22:57.273Z,2.70
2019-04-11T03:25:24.623Z,2.70
2019-04-11T03:27:54.239Z,2.60
2019-04-11T03:30:34.498Z,2.60
2019-04-11T03:33:55.379Z,2.60
2019-04-11T03:38:19.414Z,2.60
2019-04-11T03:40:48.186Z,2.50
2019-04-11T03:43:09.310Z,2.50
2019-04-11T03:45:48.373Z,2.50
2019-04-11T03:48:12.601Z,2.50
2019-04-11T03:50:33.953Z,2.40
2019-04-11T03:53:04.766Z,2.40
2019-04-11T03:55:34.995Z,2.40
2019-04-11T03:58:05.996Z,2.30
2019-04-11T04:00:37.265Z,2.30
2019-04-11T04:03:06.213Z,2.20
2019-04-11T04:05:36.880Z,2.20
2019-04-11T04:08:06.314Z,2.10
2019-04-11T04:10:36.833Z,2.10
2019-04-11T04:13:11.346Z,2.10
2019-04-11T04:16:18.648Z,2.10
2019-04-11T04:18:45.815Z,2.10
2019-04-11T04:21:28.709Z,2.00
2019-04-11T04:24:01.640Z,2.00
2019-04-11T04:26:31.209Z,2.00
2019-04-11T04:29:01.955Z,1.90
2019-04-11T04:31:32.797Z,1.90
2019-04-11T04:34:02.446Z,1.90
2019-04-11T04:36:33.340Z,1.90
2019-04-11T04:39:05.757Z,1.90
2019-04-11T04:41:44.040Z,1.90
2019-04-11T04:44:08.534Z,1.80
2019-04-11T04:46:52.713Z,1.80
2019-04-11T04:49:09.322Z,1.80
2019-04-11T04:51:41.416Z,1.90
2019-04-11T04:54:12.033Z,1.90
2019-04-11T04:56:42.930Z,1.90
2019-04-11T04:59:14.047Z,1.90
2019-04-11T05:01:44.269Z,1.90
2019-04-11T05:04:15.634Z,1.90
2019-04-11T05:06:48.109Z,1.90
2019-04-11T05:09:15.015Z,1.90
2019-04-11T05:11:46.647Z,1.90
2019-04-11T05:14:16.348Z,1.90
2019-04-11T05:16:46.112Z,1.90
2019-04-11T05:19:14.993Z,1.90
2019-04-11T05:21:43.791Z,1.90
2019-04-11T05:24:12.800Z,2.00
2019-04-11T05:26:41.828Z,2.00
2019-04-11T05:29:11.496Z,2.00
2019-04-11T05:31:40.801Z,2.10
2019-04-11T05:34:10.061Z,2.10
2019-04-11T05:36:39.099Z,2.20
2019-04-11T05:39:08.976Z,2.20
2019-04-11T05:41:42.049Z,2.20
2019-04-11T05:44:10.889Z,2.30
2019-04-11T05:46:49.117Z,2.30
2019-04-11T05:49:29.045Z,2.40
2019-04-11T05:52:03.880Z,2.40
2019-04-11T05:54:46.432Z,2.50
2019-04-11T05:57:13.797Z,2.50
2019-04-11T05:59:48.755Z,2.60
2019-04-11T06:02:26.830Z,2.60
2019-04-11T06:05:05.015Z,2.70
2019-04-11T06:07:42.178Z,2.80
2019-04-11T06:10:14.735Z,3.00
2019-04-11T06:13:21.012Z,3.10
2019-04-11T06:15:52.089Z,3.20
2019-04-11T06:18:33.080Z,3.20
2019-04-11T06:21:05.480Z,3.30
2019-04-11T06:24:09.874Z,3.40
2019-04-11T06:26:49.634Z,3.40
2019-04-11T06:29:34.780Z,3.50
2019-04-11T06:32:25.638Z,3.60
2019-04-11T06:34:59.757Z,3.60
2019-04-11T06:37:49.925Z,3.70
2019-04-11T06:40:26.078Z,3.80
2019-04-11T06:43:11.906Z,3.90
2019-04-11T06:46:07.657Z,4.00
2019-04-11T06:48:42.177Z,4.10
2019-04-11T06:51:24.435Z,4.20
2019-04-11T06:54:11.195Z,4.40
2019-04-11T06:56:43.431Z,4.40
2019-04-11T06:59:18.914Z,4.50
2019-04-11T07:01:47.715Z,4.60
2019-04-11T07:04:21.816Z,4.70
2019-04-11T07:06:51.971Z,4.80
2019-04-11T07:09:39.451Z,5.00
2019-04-11T07:12:13.385Z,5.10
2019-04-11T07:15:07.418Z,5.20
2019-04-11T07:17:54.671Z,5.30
2019-04-11T07:20:41.505Z,5.40
2019-04-11T07:26:23.021Z,5.60
2019-04-11T07:29:11.374Z,5.70
2019-04-11T07:32:16.138Z,5.90
2019-04-11T07:35:23.305Z,6.00
2019-04-11T07:37:55.393Z,6.10
2019-04-11T07:40:43.224Z,6.30
2019-04-11T07:43:15.780Z,6.30
2019-04-11T07:46:11.272Z,6.40
2019-04-11T07:48:43.242Z,6.50
2019-04-11T07:51:32.127Z,6.70
2019-04-11T07:54:02.981Z,6.80
2019-04-11T07:57:04.096Z,6.90
2019-04-11T07:59:41.942Z,7.00
2019-04-11T08:02:45.578Z,7.10
2019-04-11T08:05:32.408Z,7.30
2019-04-11T08:08:21.400Z,7.40
2019-04-11T08:11:13.569Z,7.40
2019-04-11T08:14:02.104Z,7.60
2019-04-11T08:16:59.534Z,7.60
2019-04-11T08:19:47.584Z,7.70
2019-04-11T08:22:37.016Z,7.90
2019-04-11T08:28:10.988Z,8.10
2019-04-11T08:30:48.813Z,8.30
2019-04-11T08:33:18.359Z,8.30
2019-04-11T08:35:55.611Z,8.50
2019-04-11T08:38:34.164Z,8.60
2019-04-11T08:41:19.781Z,8.60
2019-04-11T08:43:48.761Z,8.70
2019-04-11T08:46:37.290Z,8.80
2019-04-11T08:49:09.819Z,8.90
2019-04-11T08:51:39.178Z,8.90
2019-04-11T08:54:25.794Z,8.90
2019-04-11T08:56:55.677Z,8.90
2019-04-11T08:59:43.997Z,9.00
2019-04-11T09:02:18.449Z,8.90
2019-04-11T09:05:14.990Z,9.00
2019-04-11T09:07:49.874Z,9.20
2019-04-11T09:10:36.929Z,9.40
2019-04-11T09:13:17.404Z,9.60
2019-04-11T09:16:04.073Z,9.70
2019-04-11T09:18:33.013Z,9.80
2019-04-11T09:21:40.496Z,9.90
2019-04-11T09:24:26.348Z,9.90
2019-04-11T09:27:14.311Z,9.90
2019-04-11T09:29:46.914Z,9.70
2019-04-11T09:32:42.422Z,9.60
2019-04-11T09:35:22.101Z,9.40
2019-04-11T09:37:51.803Z,9.30
2019-04-11T09:40:45.897Z,9.30
2019-04-11T09:43:24.137Z,9.50
2019-04-11T09:46:12.276Z,9.60
2019-04-11T09:48:51.749Z,9.80
2019-04-11T09:51:40.310Z,9.90
2019-04-11T09:54:35.131Z,10.00
2019-04-11T09:57:16.277Z,10.10
2019-04-11T10:00:04.470Z,10.20
2019-04-11T10:03:01.769Z,10.30
2019-04-11T10:05:42.588Z,10.30
2019-04-11T10:08:16.901Z,10.40
2019-04-11T10:11:03.832Z,10.50
2019-04-11T10:13:49.072Z,10.60
2019-04-11T10:16:46.665Z,10.70
2019-04-11T10:19:20.626Z,10.80
2019-04-11T10:21:54.518Z,10.90
2019-04-11T10:24:51.535Z,11.00
2019-04-11T10:27:33.810Z,11.10
2019-04-11T10:30:22.420Z,11.20
2019-04-11T10:32:53.271Z,11.30
2019-04-11T10:35:40.771Z,11.40
2019-04-11T10:38:09.930Z,11.50
2019-04-11T10:41:04.178Z,11.60
2019-04-11T10:43:34.199Z,11.50
2019-04-11T10:46:11.330Z,11.50
2019-04-11T10:48:49.155Z,11.50
2019-04-11T10:51:31.910Z,11.50
2019-04-11T10:54:03.728Z,11.60
2019-04-11T10:56:47.579Z,11.60
2019-04-11T10:59:17.516Z,11.60
2019-04-11T11:02:02.623Z,11.70
2019-04-11T11:05:03.242Z,11.80
2019-04-11T11:07:33.391Z,12.00
2019-04-11T11:10:13.991Z,12.00
2019-04-11T11:13:09.535Z,12.10
2019-04-11T11:15:45.274Z,12.20
2019-04-11T11:18:59.691Z,12.20
2019-04-11T11:21:07.498Z,12.30
2019-04-11T11:23:54.461Z,12.40
2019-04-11T11:29:40.790Z,12.30
2019-04-11T11:32:29.435Z,12.30
2019-04-11T11:35:27.112Z,12.40
2019-04-11T11:38:02.050Z,12.50
2019-04-11T11:40:50.453Z,12.60
2019-04-11T11:43:27.612Z,12.80
2019-04-11T11:46:03.896Z,12.70
2019-04-11T11:48:38.246Z,12.70
2019-04-11T11:51:41.596Z,12.80
2019-04-11T11:54:39.721Z,12.80
2019-04-11T11:57:16.203Z,12.90
2019-04-11T11:59:48.311Z,13.00
2019-04-11T12:02:30.646Z,13.00
2019-04-11T12:05:16.347Z,13.10
2019-04-11T12:08:00.458Z,13.20
2019-04-11T12:10:35.786Z,13.10
2019-04-11T12:13:22.970Z,13.00
2019-04-11T12:16:20.836Z,13.00
2019-04-11T12:18:56.618Z,13.20
2019-04-11T12:21:29.725Z,13.40
2019-04-11T12:24:29.397Z,13.40
2019-04-11T12:27:24.609Z,13.60
2019-04-11T12:30:23.498Z,13.60
2019-04-11T12:33:14.121Z,13.60
2019-04-11T12:36:01.310Z,13.70
2019-04-11T12:38:48.117Z,13.70
2019-04-11T12:41:36.050Z,13.80
2019-04-11T12:44:30.370Z,13.80
2019-04-11T12:47:27.893Z,13.80
2019-04-11T12:50:23.118Z,13.80
2019-04-11T12:52:59.022Z,13.70
2019-04-11T12:55:32.965Z,13.60
2019-04-11T12:58:39.062Z,13.60
2019-04-11T13:01:25.654Z,13.60
2019-04-11T13:04:12.191Z,13.80
2019-04-11T13:06:51.743Z,13.90
2019-04-11T13:09:31.898Z,13.90
2019-04-11T13:12:01.507Z,13.90
2019-04-11T13:14:39.202Z,14.00
2019-04-11T13:17:10.423Z,14.00
2019-04-11T13:20:05.021Z,13.80
2019-04-11T13:22:32.547Z,13.70
2019-04-11T13:25:20.433Z,13.70
2019-04-11T13:27:55.047Z,13.70
2019-04-11T13:30:48.866Z,13.70
2019-04-11T13:33:23.449Z,13.70
2019-04-11T13:36:14.157Z,13.60
2019-04-11T13:38:44.885Z,13.60
2019-04-11T13:41:51.458Z,13.70
2019-04-11T13:44:23.538Z,13.80
2019-04-11T13:47:14.435Z,13.80
2019-04-11T13:49:45.480Z,13.80
2019-04-11T13:52:33.795Z,13.70
2019-04-11T13:55:21.497Z,13.70
2019-04-11T13:58:12.480Z,13.70
2019-04-11T14:00:49.138Z,13.80
2019-04-11T14:03:49.220Z,13.80
2019-04-11T14:06:27.470Z,13.70
2019-04-11T14:09:24.577Z,13.70
2019-04-11T14:12:04.863Z,13.80
2019-04-11T14:14:57.359Z,13.80
2019-04-11T14:17:42.469Z,13.80
2019-04-11T14:20:32.514Z,13.70
2019-04-11T14:23:29.729Z,13.50
2019-04-11T14:26:23.833Z,13.50
2019-04-11T14:29:04.751Z,13.40
2019-04-11T14:31:55.450Z,13.50
2019-04-11T14:34:42.323Z,13.50
2019-04-11T14:37:37.731Z,13.50
2019-04-11T14:40:06.015Z,13.40
2019-04-11T14:42:52.665Z,13.40
2019-04-11T14:45:54.472Z,13.30
2019-04-11T14:48:40.670Z,13.30
2019-04-11T14:51:26.943Z,13.30
2019-04-11T14:54:03.783Z,13.30
2019-04-11T14:56:33.155Z,13.40
2019-04-11T14:59:23.807Z,13.30
2019-04-11T15:01:53.666Z,13.20
2019-04-11T15:04:43.716Z,13.10
2019-04-11T15:07:12.857Z,13.20
2019-04-11T15:09:50.643Z,13.20
2019-04-11T15:12:22.419Z,13.20
2019-04-11T15:15:19.954Z,13.10
2019-04-11T15:17:50.156Z,13.10
2019-04-11T15:20:33.922Z,13.10
2019-04-11T15:23:07.067Z,13.20
2019-04-11T15:25:55.428Z,13.20
2019-04-11T15:28:44.018Z,13.20
2019-04-11T15:31:26.165Z,13.00
2019-04-11T15:34:09.204Z,12.90
2019-04-11T15:36:39.911Z,12.90
2019-04-11T15:39:26.911Z,12.90
2019-04-11T15:42:02.134Z,12.90
2019-04-11T15:44:45.818Z,12.90
2019-04-11T15:47:18.756Z,12.90
2019-04-11T15:50:09.362Z,12.80
2019-04-11T15:52:41.381Z,12.80
2019-04-11T15:55:37.556Z,12.80
2019-04-11T15:58:06.814Z,12.70
2019-04-11T16:01:03.778Z,12.50
2019-04-11T16:03:33.104Z,12.30
2019-04-11T16:06:20.077Z,12.10
2019-04-11T16:09:01.978Z,11.90
2019-04-11T16:11:53.079Z,12.00
2019-04-11T16:14:38.873Z,12.10
2019-04-11T16:17:35.935Z,12.20
2019-04-11T16:20:27.885Z,12.00
2019-04-11T16:23:16.334Z,11.70
2019-04-11T16:25:51.282Z,11.50
2019-04-11T16:28:38.982Z,11.40
2019-04-11T16:31:10.412Z,11.30
2019-04-11T16:34:07.785Z,11.00
2019-04-11T16:36:40.566Z,10.90
2019-04-11T16:39:44.901Z,10.70
2019-04-11T16:42:15.530Z,10.60
2019-04-11T16:45:06.581Z,10.40
2019-04-11T16:48:00.369Z,10.30
2019-04-11T16:50:29.687Z,10.20
2019-04-11T16:52:58.897Z,10.20
2019-04-11T16:55:27.858Z,10.00
2019-04-11T16:57:57.091Z,9.90
2019-04-11T17:00:26.306Z,9.80
2019-04-11T17:02:55.694Z,9.80
2019-04-11T17:05:26.795Z,9.70
2019-04-11T17:08:20.726Z,9.60
2019-04-11T17:11:08.091Z,9.50
2019-04-11T17:13:37.181Z,9.40
2019-04-11T17:16:08.917Z,9.30
2019-04-11T17:18:38.307Z,9.20
2019-04-11T17:21:08.546Z,9.20
2019-04-11T17:23:37.936Z,9.10
2019-04-11T17:26:06.892Z,9.00
2019-04-11T17:28:36.309Z,8.90
2019-04-11T17:31:05.307Z,8.90
2019-04-11T17:33:34.423Z,8.90
2019-04-11T17:36:03.622Z,8.80
2019-04-11T17:38:36.847Z,8.80
2019-04-11T17:41:03.541Z,8.80
2019-04-11T17:43:32.432Z,8.70
2019-04-11T17:46:01.497Z,8.60
2019-04-11T17:48:30.913Z,8.50
2019-04-11T17:50:59.761Z,8.40
2019-04-11T17:53:28.914Z,8.30
2019-04-11T17:55:58.318Z,8.30
2019-04-11T17:58:27.853Z,8.20
2019-04-11T18:01:00.370Z,8.10
2019-04-11T18:03:29.573Z,8.00
2019-04-11T18:05:58.682Z,7.90
2019-04-11T18:08:27.458Z,7.90
2019-04-11T18:10:56.726Z,7.80
2019-04-11T18:13:30.578Z,7.70
2019-04-11T18:16:00.727Z,7.60
2019-04-11T18:18:27.961Z,7.50
2019-04-11T18:20:57.387Z,7.50
2019-04-11T18:23:26.793Z,7.40
2019-04-11T18:25:55.833Z,7.40
2019-04-11T18:28:24.938Z,7.30
2019-04-11T18:30:54.671Z,7.20
2019-04-11T18:33:24.251Z,7.20
2019-04-11T18:35:55.102Z,7.20
2019-04-11T18:38:24.291Z,7.10
2019-04-11T18:40:56.002Z,7.10
2019-04-11T18:43:25.566Z,7.00
2019-04-11T18:45:55.020Z,6.90
2019-04-11T18:48:23.958Z,6.80
2019-04-11T18:50:53.937Z,6.80
2019-04-11T18:53:22.855Z,6.70
2019-04-11T18:55:54.584Z,6.70
2019-04-11T18:58:24.447Z,6.60
2019-04-11T19:00:53.669Z,6.50
2019-04-11T19:03:23.209Z,6.50
2019-04-11T19:05:52.987Z,6.40
2019-04-11T19:08:22.147Z,6.40
2019-04-11T19:10:51.780Z,6.30
2019-04-11T19:13:20.670Z,6.30
2019-04-11T19:15:49.894Z,6.20
2019-04-11T19:18:18.857Z,6.20
2019-04-11T19:20:50.310Z,6.20
2019-04-11T19:23:19.865Z,6.10
2019-04-11T19:25:49.087Z,6.10
2019-04-11T19:28:17.964Z,6.00
2019-04-11T19:30:46.877Z,6.00
2019-04-11T19:33:16.053Z,6.00
2019-04-11T19:35:45.567Z,5.90
2019-04-11T19:38:29.738Z,5.90
2019-04-11T19:40:59.022Z,5.80
2019-04-11T19:43:27.827Z,5.80
2019-04-11T19:45:58.648Z,5.70
2019-04-11T19:48:29.282Z,5.70
2019-04-11T19:50:58.964Z,5.70
2019-04-11T19:53:32.681Z,5.60
2019-04-11T19:56:08.239Z,5.50
2019-04-11T19:58:37.051Z,5.50
2019-04-11T20:01:06.223Z,5.50
2019-04-11T20:03:34.999Z,5.40
2019-04-11T20:06:03.906Z,5.40
2019-04-11T20:08:32.905Z,5.40
2019-04-11T20:11:02.032Z,5.30
2019-04-11T20:13:32.235Z,5.30
2019-04-11T20:16:02.271Z,5.30
2019-04-11T20:18:31.392Z,5.20
2019-04-11T20:21:00.784Z,5.20
2019-04-11T20:23:30.171Z,5.20
2019-04-11T20:25:59.828Z,5.20
2019-04-11T20:28:28.954Z,5.10
2019-04-11T20:30:57.783Z,5.10
2019-04-11T20:33:27.710Z,5.10
2019-04-11T20:35:56.811Z,5.00
2019-04-11T20:38:25.682Z,5.00
2019-04-11T20:40:55.187Z,5.00
2019-04-11T20:43:25.419Z,5.00
2019-04-11T20:45:58.034Z,5.00
2019-04-11T20:48:26.118Z,4.90
2019-04-11T20:50:55.824Z,4.90
2019-04-11T20:53:24.892Z,4.90
2019-04-11T20:55:53.975Z,4.90
2019-04-11T20:58:27.493Z,4.80
2019-04-11T21:00:55.993Z,4.80
2019-04-11T21:03:25.207Z,4.80
2019-04-11T21:05:54.313Z,4.70
2019-04-11T21:08:23.153Z,4.70
2019-04-11T21:10:52.019Z,4.70
2019-04-11T21:13:21.330Z,4.70
2019-04-11T21:15:50.211Z,4.70
2019-04-11T21:18:19.202Z,4.70
2019-04-11T21:20:48.407Z,4.60
2019-04-11T21:23:24.309Z,4.60
2019-04-11T21:25:48.846Z,4.60
2019-04-11T21:28:17.597Z,4.60
2019-04-11T21:30:46.793Z,4.50
2019-04-11T21:33:19.151Z,4.50
2019-04-11T21:35:49.568Z,4.50
2019-04-11T21:38:19.706Z,4.50
2019-04-11T21:40:51.140Z,4.50
2019-04-11T21:43:23.430Z,4.50
2019-04-11T21:45:54.674Z,4.40
2019-04-11T21:48:24.580Z,4.40
2019-04-11T21:50:53.834Z,4.40
2019-04-11T21:53:35.800Z,4.30
2019-04-11T21:55:55.454Z,4.30
2019-04-11T21:58:25.799Z,4.30
2019-04-11T22:01:04.831Z,4.30
2019-04-11T22:03:35.226Z,4.30
2019-04-11T22:06:04.576Z,4.20
2019-04-11T22:08:34.375Z,4.20
2019-04-11T22:11:05.063Z,4.20
2019-04-11T22:13:37.939Z,4.20
2019-04-11T22:16:06.402Z,4.20
2019-04-11T22:18:36.121Z,4.10
2019-04-11T22:21:05.670Z,4.10
2019-04-11T22:23:35.077Z,4.10
2019-04-11T22:26:04.650Z,4.10
2019-04-11T22:28:34.592Z,4.10
2019-04-11T22:31:03.739Z,4.10
2019-04-11T22:33:38.026Z,4.00
2019-04-11T22:36:10.922Z,4.00
2019-04-11T22:38:43.396Z,4.00
2019-04-11T22:41:13.069Z,3.90
2019-04-11T22:43:43.247Z,3.90
2019-04-11T22:46:20.697Z,3.90
2019-04-11T22:48:44.059Z,3.90
2019-04-11T22:51:13.447Z,3.90
2019-04-11T22:53:43.314Z,3.80
2019-04-11T22:56:14.928Z,3.80
2019-04-11T22:58:45.287Z,3.80
2019-04-11T23:01:16.608Z,3.80
2019-04-11T23:03:49.065Z,3.80
2019-04-11T23:06:18.712Z,3.80
2019-04-11T23:08:50.847Z,3.80
2019-04-11T23:11:20.475Z,3.80
2019-04-11T23:13:50.060Z,3.80
2019-04-11T23:16:19.519Z,3.80
2019-04-11T23:18:48.817Z,3.80
2019-04-11T23:21:18.163Z,3.80
2019-04-11T23:23:47.937Z,3.70
2019-04-11T23:26:17.842Z,3.80
2019-04-11T23:28:48.164Z,3.80
2019-04-11T23:31:19.771Z,3.80
2019-04-11T23:33:51.694Z,3.80
2019-04-11T23:36:21.298Z,3.80
2019-04-11T23:38:52.677Z,3.80
2019-04-11T23:41:21.833Z,3.80
2019-04-11T23:43:52.127Z,3.80
2019-04-11T23:46:22.084Z,3.80
2019-04-11T23:48:55.536Z,3.80
2019-04-11T23:51:26.354Z,3.80
2019-04-11T23:53:58.999Z,3.80
2019-04-11T23:56:28.181Z,3.80
2019-04-11T23:59:01.644Z,3.80
